Time;durP1;ratioP1;P1;durP2;ratioP2;P2;SDS_P1;SDS_P2;PMS_P1;PMS_P2;Temp;Humidity;BMP_temperature;BMP_pressure;BME280_temperature;BME280_humidity;BME280_pressure;Samples;Min_cycle;Max_cycle;Signal;HPM_P1;HPM_P2
2022/02/05 00:00:35;;;;;;;16.70;11.20;;;;;;;-2.14;72.74;100945.03;1754883;81;20884;-72
2022/02/05 00:05:42;;;;;;;16.42;11.78;;;;;;;-2.17;72.55;100955.77;1755570;80;20889;-71
2022/02/05 00:38:20;;;;;;;16.20;11.65;;;;;;;-2.06;72.52;100949.33;1754948;80;20988;-70
2022/02/05 00:43:12;;;;;;;18.80;11.73;;;;;;;-2.04;72.47;100947.61;1755044;80;20877;-71
2022/02/05 00:45:43;;;;;;;19.90;12.23;;;;;;;-2.06;72.25;100954.03;1748410;80;21379;-72
2022/02/05 00:48:09;;;;;;;19.12;11.75;;;;;;;-2.08;72.17;100949.31;1745006;81;21126;-70
2022/02/05 00:50:40;;;;;;;16.00;10.38;;;;;;;-2.09;72.44;100950.16;1744453;81;21418;-73
2022/02/05 00:53:11;;;;;;;17.05;11.08;;;;;;;-2.03;72.16;100953.16;1744966;81;20964;-71
2022/02/05 00:55:37;;;;;;;19.00;12.00;;;;;;;-2.05;72.06;100954.88;1744281;80;20944;-71
2022/02/05 00:58:05;;;;;;;21.02;11.45;;;;;;;-2.06;72.06;100951.45;1744593;81;20924;-71
2022/02/05 01:00:35;;;;;;;18.27;11.15;;;;;;;-2.09;72.18;100948.47;1744563;81;21395;-72
2022/02/05 01:03:03;;;;;;;16.48;11.22;;;;;;;-2.04;72.10;100951.03;1744491;81;20920;-71
2022/02/05 01:05:30;;;;;;;17.75;10.70;;;;;;;-2.04;71.90;100952.75;1744472;81;20893;-71
2022/02/05 01:07:58;;;;;;;15.48;10.50;;;;;;;-2.05;71.96;100945.44;1744541;81;20925;-71
2022/02/05 01:10:26;;;;;;;18.50;10.80;;;;;;;-2.05;71.81;100948.45;1744581;81;20936;-72
2022/02/05 01:12:58;;;;;;;23.50;13.45;;;;;;;-2.06;71.90;100955.31;1744545;81;21524;-71
2022/02/05 01:15:26;;;;;;;17.87;10.88;;;;;;;-2.06;71.94;100956.59;1744246;80;20893;-70
2022/02/05 01:17:57;;;;;;;16.95;11.00;;;;;;;-2.03;72.00;100957.02;1744523;81;20893;-71
2022/02/05 01:21:08;;;;;;;21.70;12.23;;;;;;;-2.00;71.91;100963.41;1744266;81;21023;-71
2022/02/05 01:22:53;;;;;;;26.55;12.82;;;;;;;-1.96;71.77;100961.27;1732102;81;20929;-72
2022/02/05 01:25:25;;;;;;;18.42;11.25;;;;;;;-1.92;71.67;100955.27;1744468;81;21096;-72
2022/02/05 01:27:57;;;;;;;24.80;13.88;;;;;;;-1.86;71.66;100958.25;1744268;80;20901;-71
2022/02/05 01:30:28;;;;;;;26.33;13.93;;;;;;;-1.82;71.49;100961.22;1744368;81;20900;-72
2022/02/05 01:49:59;;;;;;;17.15;10.03;;;;;;;-1.70;70.25;100972.31;1757907;80;20924;-70
2022/02/05 01:52:15;;;;;;;14.98;10.15;;;;;;;-1.78;69.96;100980.50;1755382;81;21167;-73
2022/02/05 01:57:15;;;;;;;12.45;8.40;;;;;;;-1.88;70.27;100974.52;1757800;81;20936;-72
2022/02/05 02:04:39;;;;;;;17.80;11.30;;;;;;;-1.84;70.46;100977.10;1757158;81;20983;-74
2022/02/05 02:05:04;;;;;;;17.60;11.43;;;;;;;-1.80;70.42;100970.66;1757901;81;20949;-72
2022/02/05 02:10:46;;;;;;;12.50;10.05;;;;;;;-1.84;70.30;100979.23;1758194;80;20975;-75
2022/02/05 02:13:18;;;;;;;14.15;9.78;;;;;;;-1.89;70.23;100983.11;1755431;81;21019;-75
2022/02/05 02:15:37;;;;;;;19.35;10.68;;;;;;;-1.89;70.32;100980.53;1755273;81;21458;-73
2022/02/05 02:18:22;;;;;;;13.38;9.75;;;;;;;-1.92;70.27;100982.25;1757173;81;21177;-74
2022/02/05 02:21:12;;;;;;;14.65;10.98;;;;;;;-1.92;70.37;100989.52;1757036;81;20888;-74
2022/02/05 02:26:18;;;;;;;17.57;10.75;;;;;;;-1.85;70.33;100987.78;1758028;81;20873;-75
2022/02/05 02:28:44;;;;;;;46.88;22.65;;;;;;;-1.88;70.13;100987.81;1756220;80;20861;-73
2022/02/05 02:31:09;;;;;;;40.58;19.67;;;;;;;-1.93;70.06;100988.27;1756124;81;21142;-74
2022/02/05 02:33:38;;;;;;;35.65;19.40;;;;;;;-1.98;70.16;100984.42;1757619;81;20915;-74
2022/02/05 02:36:03;;;;;;;30.97;17.73;;;;;;;-1.99;70.29;100989.12;1757394;80;20920;-75
2022/02/05 02:38:40;;;;;;;37.15;17.32;;;;;;;-2.02;70.08;100987.85;1758056;81;21370;-75
2022/02/05 02:41:12;;;;;;;21.27;12.75;;;;;;;-2.07;69.99;100988.27;1757430;81;21534;-72
2022/02/05 02:43:35;;;;;;;20.05;12.82;;;;;;;-2.13;70.21;100990.44;1757471;81;21084;-72
2022/02/05 02:46:02;;;;;;;20.43;12.58;;;;;;;-2.20;70.10;100983.61;1758435;80;20869;-73
2022/02/05 02:48:30;;;;;;;19.55;12.65;;;;;;;-2.30;70.14;100989.61;1758460;81;20904;-73
2022/02/05 02:59:26;;;;;;;20.70;13.55;;;;;;;-2.46;70.91;101002.89;1712305;83;20982;-75
2022/02/05 03:01:58;;;;;;;17.82;11.28;;;;;;;-2.50;70.95;100999.89;1712362;83;21390;-74
2022/02/05 03:04:19;;;;;;;17.07;11.85;;;;;;;-2.52;71.08;100999.87;1712454;83;21405;-75
2022/02/05 03:06:45;;;;;;;18.90;12.28;;;;;;;-2.53;71.13;100996.91;1712469;83;20999;-73
2022/02/05 03:09:14;;;;;;;21.55;12.13;;;;;;;-2.55;70.95;101003.75;1712693;83;21021;-73
2022/02/05 03:11:41;;;;;;;18.62;12.20;;;;;;;-2.60;71.13;101001.61;1712523;83;20904;-73
2022/02/05 03:14:08;;;;;;;16.25;12.63;;;;;;;-2.63;71.12;101005.45;1712813;83;20968;-72
2022/02/05 03:16:37;;;;;;;16.97;11.15;;;;;;;-2.65;71.29;101007.59;1712472;83;21027;-73
2022/02/05 03:21:32;;;;;;;17.92;10.82;;;;;;;-2.72;71.41;101005.01;1712780;83;21269;-73
2022/02/05 03:23:59;;;;;;;11.90;9.33;;;;;;;-2.73;71.39;101002.03;1712755;83;21133;-73
2022/02/05 03:26:25;;;;;;;16.55;11.55;;;;;;;-2.75;71.39;101006.30;1712465;83;21023;-73
2022/02/05 03:28:52;;;;;;;14.55;10.35;;;;;;;-2.77;71.36;101002.03;1712693;83;21402;-71
2022/02/05 03:31:19;;;;;;;16.52;11.03;;;;;;;-2.79;71.39;101004.59;1754010;81;21491;-72
2022/02/05 03:33:46;;;;;;;25.57;15.00;;;;;;;-2.81;71.40;101002.44;1758210;80;21121;-73
2022/02/05 03:36:12;;;;;;;21.42;12.95;;;;;;;-2.85;71.42;101007.57;1757851;81;20880;-72
2022/02/05 03:38:39;;;;;;;22.35;13.03;;;;;;;-2.89;71.50;101013.55;1758065;80;21003;-73
2022/02/05 03:41:06;;;;;;;19.55;11.78;;;;;;;-2.94;71.46;101010.98;1758007;81;20932;-72
2022/02/05 03:43:33;;;;;;;22.60;12.58;;;;;;;-3.00;71.50;101019.53;1758022;80;20951;-74
2022/02/05 03:46:00;;;;;;;22.75;13.75;;;;;;;-3.03;71.48;101014.81;1757814;80;22074;-74
2022/02/05 03:48:28;;;;;;;20.43;14.35;;;;;;;-3.08;71.65;101019.94;1757870;81;20936;-74
2022/02/05 03:50:55;;;;;;;26.85;16.82;;;;;;;-3.08;71.69;101021.66;1758025;81;20853;-73
2022/02/05 03:53:22;;;;;;;26.50;16.15;;;;;;;-3.12;71.79;101022.91;1758162;80;21015;-72
2022/02/05 03:55:49;;;;;;;28.80;17.23;;;;;;;-3.16;71.82;101021.61;1759076;81;21371;-73
2022/02/05 03:58:15;;;;;;;28.57;15.93;;;;;;;-3.21;71.88;101020.32;1757929;81;21508;-73
2022/02/05 04:00:42;;;;;;;30.77;17.07;;;;;;;-3.22;72.01;101023.75;1758056;81;21492;-72
2022/02/05 04:03:10;;;;;;;22.35;14.93;;;;;;;-3.22;72.02;101030.16;1758020;80;20983;-73
2022/02/05 04:05:36;;;;;;;27.13;16.75;;;;;;;-3.24;71.88;101031.02;1757796;80;20892;-74
2022/02/05 04:08:07;;;;;;;32.53;20.57;;;;;;;-3.27;71.96;101035.68;1758052;81;21477;-75
2022/02/05 04:10:42;;;;;;;29.50;18.35;;;;;;;-3.31;71.95;101031.82;1758181;81;21127;-74
2022/02/05 04:16:10;;;;;;;34.25;19.52;;;;;;;-3.41;72.02;101043.33;1757969;80;21445;-72
2022/02/05 04:18:25;;;;;;;33.50;20.23;;;;;;;-3.44;72.13;101041.20;1756049;81;20920;-73
2022/02/05 04:20:53;;;;;;;32.93;21.00;;;;;;;-3.47;72.18;101048.42;1758271;81;20884;-73
2022/02/05 04:23:20;;;;;;;33.98;19.23;;;;;;;-3.47;72.13;101046.29;1758535;81;21774;-73
2022/02/05 04:25:47;;;;;;;25.27;14.20;;;;;;;-3.48;72.17;101050.57;1758027;81;20992;-72
2022/02/05 04:28:14;;;;;;;22.60;13.68;;;;;;;-3.50;72.15;101044.58;1757959;81;21405;-73
2022/02/05 04:30:41;;;;;;;20.23;12.03;;;;;;;-3.51;72.14;101051.84;1758212;81;20897;-72
2022/02/05 04:33:08;;;;;;;16.65;9.25;;;;;;;-3.51;72.12;101061.22;1757996;81;20928;-71
2022/02/05 04:35:35;;;;;;;17.82;10.85;;;;;;;-3.52;72.06;101063.36;1757941;80;21157;-73
2022/02/05 04:38:05;;;;;;;33.08;16.73;;;;;;;-3.55;71.97;101067.63;1757913;81;20841;-74
2022/02/05 04:40:38;;;;;;;38.63;17.77;;;;;;;-3.59;71.95;101063.77;1757852;81;21527;-72
2022/02/05 04:43:18;;;;;;;38.67;19.10;;;;;;;-3.63;72.00;101064.59;1757503;80;20936;-73
2022/02/05 04:53:51;;;;;;;41.05;19.40;;;;;;;-3.68;71.84;101068.84;1744621;82;20936;-73
2022/02/05 04:59:10;;;;;;;53.00;23.45;;;;;;;-3.77;71.67;101073.05;1744631;82;20100;-73
2022/02/05 05:01:39;;;;;;;31.95;16.20;;;;;;;-3.83;71.58;101074.29;1743325;81;21134;-74
2022/02/05 05:04:37;;;;;;;29.07;14.63;;;;;;;-3.87;71.53;101077.67;1743661;82;20984;-73
2022/02/05 05:07:41;;;;;;;19.70;11.45;;;;;;;-3.92;71.56;101074.66;1720324;81;21039;-73
2022/02/05 05:21:50;;;;;;;41.92;21.05;;;;;;;-4.02;71.25;101104.06;1744503;82;21032;-72
2022/02/05 05:24:17;;;;;;;57.45;29.75;;;;;;;-4.00;71.24;101101.09;1744764;82;20956;-71
2022/02/05 05:26:44;;;;;;;41.35;21.05;;;;;;;-3.96;71.25;101103.23;1744572;81;21600;-72
2022/02/05 05:29:13;;;;;;;48.45;23.12;;;;;;;-3.92;71.20;101107.54;1744515;81;21343;-73
2022/02/05 05:31:40;;;;;;;54.30;26.68;;;;;;;-3.88;71.04;101109.28;1744696;81;20881;-73
2022/02/05 05:34:07;;;;;;;43.20;23.20;;;;;;;-3.83;70.94;101099.06;1744523;80;20948;-72
2022/02/05 05:36:34;;;;;;;44.95;20.88;;;;;;;-3.78;70.93;101101.22;1744814;81;20893;-73
2022/02/05 05:39:02;;;;;;;43.13;27.35;;;;;;;-3.70;70.81;101110.25;1744770;80;21145;-74
2022/02/05 05:41:30;;;;;;;47.95;30.52;;;;;;;-3.63;70.65;101110.72;1744464;81;20888;-75
2022/02/05 05:46:40;;;;;;;50.85;25.25;;;;;;;-3.48;70.29;101113.38;1747491;80;20932;-74
2022/02/05 05:49:21;;;;;;;52.27;27.58;;;;;;;-3.44;70.16;101107.85;1757162;81;20924;-74
2022/02/05 05:51:32;;;;;;;45.33;23.83;;;;;;;-3.40;70.08;101109.16;1753769;80;21186;-72
2022/02/05 05:53:58;;;;;;;36.90;21.07;;;;;;;-3.32;70.11;101108.33;1757815;81;20829;-72
2022/02/05 05:56:25;;;;;;;39.05;22.15;;;;;;;-3.26;69.94;101110.93;1758201;80;21375;-74
2022/02/05 05:58:52;;;;;;;161.80;85.95;;;;;;;-3.19;69.73;101116.52;1758015;81;20939;-73
2022/02/05 06:01:19;;;;;;;128.95;76.92;;;;;;;-3.13;69.53;101116.11;1757842;81;20944;-72
2022/02/05 06:03:46;;;;;;;138.52;79.95;;;;;;;-3.06;69.41;101115.72;1757961;80;21223;-72
2022/02/05 06:06:13;;;;;;;86.67;49.50;;;;;;;-3.03;69.37;101113.14;1757966;81;20885;-73
2022/02/05 06:08:40;;;;;;;92.75;52.38;;;;;;;-2.95;69.33;101115.76;1757973;80;20956;-74
2022/02/05 06:11:07;;;;;;;202.70;118.55;;;;;;;-2.87;69.16;101119.19;1759091;80;20944;-75
2022/02/05 06:13:35;;;;;;;162.85;91.20;;;;;;;-2.79;68.98;101122.64;1757943;80;21389;-73
2022/02/05 06:16:08;;;;;;;81.95;45.85;;;;;;;-2.66;68.89;101118.41;1757847;80;21426;-74
2022/02/05 06:18:33;;;;;;;58.33;31.65;;;;;;;-2.47;68.69;101128.27;1757814;80;21410;-75
2022/02/05 06:20:59;;;;;;;51.88;26.10;;;;;;;-2.19;68.48;101122.75;1757956;81;20912;-74
2022/02/05 06:23:26;;;;;;;54.27;28.30;;;;;;;-1.85;68.01;101118.87;1758164;80;20999;-74
2022/02/05 06:25:53;;;;;;;78.42;42.35;;;;;;;-1.41;67.67;101112.80;1757909;80;20861;-75
2022/02/05 06:28:20;;;;;;;139.30;76.72;;;;;;;-0.95;66.79;101119.52;1758120;81;21114;-74
2022/02/05 06:30:48;;;;;;;110.65;65.22;;;;;;;-0.66;65.45;101111.19;1757782;80;20976;-75
2022/02/05 06:33:16;;;;;;;53.92;34.50;;;;;;;-0.51;64.58;101108.97;1757838;81;20888;-75
2022/02/05 06:35:44;;;;;;;42.30;23.15;;;;;;;-0.45;64.04;101115.78;1757713;80;20943;-73
2022/02/05 06:38:11;;;;;;;37.05;21.02;;;;;;;-0.50;63.67;101113.23;1757800;80;20888;-73
2022/02/05 06:40:38;;;;;;;38.63;19.62;;;;;;;-0.52;63.59;101108.97;1757902;81;21100;-74
2022/02/05 06:43:05;;;;;;;32.10;18.25;;;;;;;-0.55;63.82;101105.13;1758193;80;20901;-73
2022/02/05 06:45:33;;;;;;;26.17;14.35;;;;;;;-0.64;63.89;101099.16;1758043;81;20881;-75
2022/02/05 06:48:01;;;;;;;18.77;10.63;;;;;;;-0.74;63.39;101100.52;1757765;81;20909;-75
2022/02/05 06:50:28;;;;;;;17.10;11.00;;;;;;;-0.88;63.93;101098.87;1758050;80;20990;-74
2022/02/05 06:52:55;;;;;;;17.48;11.40;;;;;;;-0.96;63.84;101097.19;1757931;81;21138;-73
2022/02/05 06:55:22;;;;;;;15.98;10.80;;;;;;;-1.03;64.61;101091.22;1758018;81;20877;-72
2022/02/05 06:57:48;;;;;;;12.43;8.35;;;;;;;-1.06;64.59;101088.67;1757892;80;21466;-73
2022/02/05 07:00:15;;;;;;;15.25;7.40;;;;;;;-1.15;64.12;101086.14;1757851;81;20889;-73
2022/02/05 07:02:45;;;;;;;12.33;7.87;;;;;;;-1.25;64.00;101083.58;1757790;81;20924;-74
2022/02/05 07:05:13;;;;;;;11.63;6.72;;;;;;;-1.32;64.04;101082.33;1757712;81;21141;-73
2022/02/05 07:07:42;;;;;;;9.88;6.67;;;;;;;-1.40;63.81;101084.06;1758000;81;20849;-74
2022/02/05 07:10:10;;;;;;;8.68;6.25;;;;;;;-1.52;63.70;101079.39;1758009;80;21421;-74
2022/02/05 07:12:59;;;;;;;13.65;7.37;;;;;;;-1.56;63.75;101081.98;1758031;81;20896;-74
2022/02/05 07:15:16;;;;;;;13.15;7.40;;;;;;;-1.62;63.72;101088.41;1755492;81;20983;-75
2022/02/05 07:17:45;;;;;;;9.05;6.42;;;;;;;-1.67;63.52;101082.00;1765313;80;21155;-75
2022/02/05 07:23:08;;;;;;;8.63;6.17;;;;;;;-1.72;63.33;101093.58;1790158;80;20944;-73
2022/02/05 07:30:24;;;;;;;10.05;5.60;;;;;;;-1.80;62.81;101090.19;1789755;80;21164;-73
2022/02/05 07:32:51;;;;;;;9.48;5.90;;;;;;;-1.82;62.94;101084.19;1789935;80;20858;-73
2022/02/05 07:35:18;;;;;;;8.63;5.42;;;;;;;-1.80;62.94;101081.59;1789676;80;20978;-73
2022/02/05 07:37:45;;;;;;;6.25;5.30;;;;;;;-1.79;62.78;101078.19;1763421;80;21006;-72
2022/02/05 07:40:12;;;;;;;7.75;4.78;;;;;;;-1.72;62.89;101075.58;1790227;80;21310;-72
2022/02/05 07:42:39;;;;;;;8.85;6.35;;;;;;;-1.63;62.62;101066.99;1790197;78;21556;-73
2022/02/05 07:45:08;;;;;;;7.80;5.50;;;;;;;-1.57;62.34;101069.99;1789642;80;20967;-72
2022/02/05 07:47:36;;;;;;;8.38;5.03;;;;;;;-1.56;61.83;101069.97;1785429;80;20955;-72
2022/02/05 07:50:04;;;;;;;8.48;6.72;;;;;;;-1.52;61.63;101072.11;1780910;80;20884;-71
2022/02/05 07:52:34;;;;;;;5.62;4.95;;;;;;;-1.49;61.62;101067.83;1780790;80;20907;-72
2022/02/05 07:55:03;;;;;;;7.70;4.72;;;;;;;-1.42;61.40;101064.80;1781048;80;20888;-73
2022/02/05 07:57:31;;;;;;;8.30;5.58;;;;;;;-1.40;60.89;101060.92;1780769;80;20897;-74
2022/02/05 07:59:59;;;;;;;7.62;6.03;;;;;;;-1.39;61.14;101067.35;1780768;80;20940;-72
2022/02/05 08:02:26;;;;;;;6.90;5.25;;;;;;;-1.39;61.01;101062.65;1780795;80;20998;-72
2022/02/05 08:04:55;;;;;;;9.53;5.55;;;;;;;-1.38;60.53;101064.34;1780451;79;21827;-75
2022/02/05 08:07:22;;;;;;;9.60;6.30;;;;;;;-1.38;60.27;101068.20;1780841;80;21844;-74
2022/02/05 08:12:20;;;;;;;7.47;5.40;;;;;;;-1.48;59.72;101059.67;1780736;80;20998;-73
2022/02/05 08:14:51;;;;;;;11.15;6.42;;;;;;;-1.51;60.13;101063.11;1780719;80;20955;-73
2022/02/05 08:17:22;;;;;;;8.25;6.10;;;;;;;-1.50;60.07;101058.38;1780895;80;20959;-72
2022/02/05 08:19:49;;;;;;;6.78;5.53;;;;;;;-1.47;59.93;101060.08;1780960;80;21201;-71
2022/02/05 08:22:15;;;;;;;10.90;5.95;;;;;;;-1.44;60.05;101058.80;1780859;80;20876;-73
2022/02/05 08:24:42;;;;;;;10.48;6.40;;;;;;;-1.35;60.41;101069.50;1781153;79;20861;-74
2022/02/05 08:27:09;;;;;;;10.58;5.85;;;;;;;-1.24;60.11;101058.73;1780746;80;20995;-72
2022/02/05 08:29:39;;;;;;;10.70;6.58;;;;;;;-1.15;60.32;101062.55;1781313;80;21697;-73
2022/02/05 08:32:07;;;;;;;9.08;6.97;;;;;;;-1.03;60.30;101062.91;1780735;80;21160;-73
2022/02/05 08:34:36;;;;;;;9.83;6.53;;;;;;;-0.94;59.47;101055.56;1781220;80;21378;-73
2022/02/05 08:37:03;;;;;;;9.13;6.72;;;;;;;-0.81;59.68;101056.36;1780708;80;20840;-74
2022/02/05 08:39:30;;;;;;;8.68;6.15;;;;;;;-0.73;59.02;101050.30;1781069;80;20857;-74
2022/02/05 08:41:57;;;;;;;7.12;5.55;;;;;;;-0.61;58.84;101054.50;1780861;79;20845;-74
2022/02/05 08:44:23;;;;;;;9.30;6.37;;;;;;;-0.52;58.33;101050.56;1781086;80;21366;-72
2022/02/05 08:46:50;;;;;;;8.68;5.92;;;;;;;-0.47;57.79;101040.22;1780668;80;20915;-73
2022/02/05 08:49:17;;;;;;;5.80;5.22;;;;;;;-0.44;57.77;101045.38;1786655;80;20911;-71
2022/02/05 08:51:44;;;;;;;9.08;6.08;;;;;;;-0.40;57.56;101052.62;1786561;80;20880;-73
2022/02/05 08:54:11;;;;;;;6.90;5.58;;;;;;;-0.44;57.33;101045.38;1786628;79;20911;-75
2022/02/05 08:56:39;;;;;;;6.50;5.30;;;;;;;-0.44;57.44;101043.64;1786610;80;21562;-72
2022/02/05 08:59:06;;;;;;;6.67;4.90;;;;;;;-0.43;57.59;101041.47;1786458;80;20975;-73
2022/02/05 09:01:54;;;;;;;7.78;5.75;;;;;;;-0.45;57.21;101045.78;1786473;80;20880;-72
2022/02/05 09:06:46;;;;;;;11.10;6.50;;;;;;;-0.50;57.19;101035.11;1786505;79;20867;-73
2022/02/05 09:09:28;;;;;;;10.18;6.45;;;;;;;-0.50;57.37;101029.95;1786507;79;21551;-75
2022/02/05 09:11:50;;;;;;;10.72;5.62;;;;;;;-0.44;57.25;101023.47;1783903;80;21345;-77
2022/02/05 09:14:16;;;;;;;9.83;6.90;;;;;;;-0.39;57.26;101028.14;1785353;80;21389;-72
2022/02/05 09:16:45;;;;;;;9.25;6.22;;;;;;;-0.36;56.64;101015.66;1786540;80;20915;-73
2022/02/05 09:19:12;;;;;;;8.60;6.55;;;;;;;-0.35;56.53;101022.55;1786535;79;21385;-75
2022/02/05 09:21:39;;;;;;;7.72;6.55;;;;;;;-0.34;56.00;101017.80;1786647;80;21171;-72
2022/02/05 09:24:07;;;;;;;9.78;6.50;;;;;;;-0.36;55.71;101020.37;1786541;79;21619;-71
2022/02/05 09:26:43;;;;;;;8.40;5.90;;;;;;;-0.37;55.64;101020.41;1786467;80;20868;-69
2022/02/05 09:29:19;;;;;;;7.97;5.55;;;;;;;-0.39;55.49;101021.70;1786114;80;20891;-71
2022/02/05 09:31:42;;;;;;;9.93;7.33;;;;;;;-0.37;55.78;101019.13;1786210;79;20872;-72
2022/02/05 09:34:10;;;;;;;11.70;7.47;;;;;;;-0.36;55.76;101022.11;1786713;80;21453;-72
2022/02/05 09:36:39;;;;;;;12.98;6.60;;;;;;;-0.27;55.77;101016.45;1786651;80;20888;-70
2022/02/05 09:39:08;;;;;;;9.70;5.83;;;;;;;-0.17;55.63;101018.51;1786538;79;20955;-71
2022/02/05 09:41:38;;;;;;;12.03;8.45;;;;;;;0.09;56.10;101014.80;1786660;80;20990;-75
2022/02/05 09:44:05;;;;;;;14.75;7.35;;;;;;;0.62;55.28;101012.04;1786640;79;21430;-71
2022/02/05 09:46:31;;;;;;;9.85;6.83;;;;;;;1.27;53.96;101010.73;1786706;79;21485;-70
2022/02/05 09:48:58;;;;;;;10.65;7.42;;;;;;;1.94;52.89;101005.31;1786397;79;20951;-72
2022/02/05 09:51:32;;;;;;;9.48;7.03;;;;;;;2.61;51.10;101008.31;1786533;80;20907;-74
2022/02/05 09:53:57;;;;;;;15.38;9.48;;;;;;;3.00;49.30;101001.84;1786058;80;21440;-71
2022/02/05 09:56:28;;;;;;;18.25;10.15;;;;;;;3.45;48.94;101001.68;1786501;79;21393;-74
2022/02/05 09:58:54;;;;;;;16.97;11.15;;;;;;;3.95;48.70;100993.04;1786918;80;21115;-72
2022/02/05 10:01:25;;;;;;;22.30;11.88;;;;;;;4.37;47.60;100995.35;1786371;80;20843;-75
2022/02/05 10:03:55;;;;;;;25.45;15.98;;;;;;;4.82;46.70;100991.00;1786559;80;20892;-76
2022/02/05 10:06:27;;;;;;;28.05;16.80;;;;;;;5.13;45.27;100984.86;1786574;79;21380;-72
2022/02/05 10:09:13;;;;;;;27.75;18.02;;;;;;;5.42;44.84;100994.78;1786667;80;21014;-73
2022/02/05 10:12:02;;;;;;;35.03;20.57;;;;;;;5.77;44.14;100988.41;1786472;79;21136;-74
2022/02/05 10:14:33;;;;;;;32.95;20.90;;;;;;;6.17;42.90;100981.84;1786394;79;21472;-73
2022/02/05 10:17:03;;;;;;;31.27;19.80;;;;;;;6.46;42.85;100986.45;1758643;80;20967;-75
2022/02/05 10:19:52;;;;;;;34.05;21.70;;;;;;;6.69;41.53;100988.18;1785723;80;21472;-73
2022/02/05 10:22:21;;;;;;;44.55;24.02;;;;;;;6.89;41.25;100983.51;1749257;82;21508;-72
2022/02/05 10:24:54;;;;;;;50.00;30.65;;;;;;;7.16;40.51;100990.70;1749439;82;21786;-70
2022/02/05 10:27:33;;;;;;;53.68;31.65;;;;;;;7.29;39.86;100988.45;1722732;83;20985;-73
2022/02/05 10:30:22;;;;;;;57.50;31.85;;;;;;;7.27;39.23;100987.23;1722684;82;21016;-71
2022/02/05 10:32:57;;;;;;;52.10;31.62;;;;;;;7.19;39.31;100986.68;1731124;83;20979;-72
2022/02/05 10:35:37;;;;;;;52.85;31.50;;;;;;;7.05;38.84;100983.33;1712773;83;20960;-72
2022/02/05 10:42:59;;;;;;;37.35;23.62;;;;;;;6.71;39.16;100983.77;1731032;83;20909;-67
2022/02/05 10:43:33;;;;;;;35.03;21.17;;;;;;;6.59;39.49;100978.11;1728434;83;21510;-65
2022/02/05 10:46:02;;;;;;;27.42;14.73;;;;;;;6.44;39.26;100978.22;1731249;83;21000;-65
2022/02/05 10:48:29;;;;;;;23.35;13.88;;;;;;;6.13;39.39;100982.39;1728697;82;20929;-68
2022/02/05 10:50:57;;;;;;;15.63;11.83;;;;;;;5.87;39.86;100982.00;1780697;79;21143;-67
2022/02/05 10:53:36;;;;;;;22.58;15.15;;;;;;;5.75;40.08;100987.16;1743955;82;20928;-67
2022/02/05 10:56:11;;;;;;;16.57;11.48;;;;;;;5.79;40.17;100981.41;1717123;83;20929;-68
2022/02/05 11:05:53;;;;;;;14.53;9.85;;;;;;;6.00;40.85;100970.72;1758349;80;20892;-73
2022/02/05 11:08:21;;;;;;;15.30;10.70;;;;;;;6.08;40.55;100970.46;1758427;80;21833;-68
2022/02/05 11:11:33;;;;;;;15.83;9.33;;;;;;;6.29;40.12;100979.23;1758278;80;20917;-72
2022/02/05 11:16:27;;;;;;;13.90;9.83;;;;;;;6.69;39.48;100965.57;1758268;80;20940;-70
2022/02/05 11:18:57;;;;;;;17.12;12.33;;;;;;;6.90;38.57;100957.39;1756054;80;21007;-70
2022/02/05 11:21:26;;;;;;;17.77;11.28;;;;;;;6.97;38.53;100954.09;1758223;80;21826;-71
2022/02/05 11:24:02;;;;;;;11.55;9.40;;;;;;;7.00;38.94;100957.86;1758281;80;20845;-71
2022/02/05 11:26:30;;;;;;;11.00;8.25;;;;;;;6.90;38.17;100950.88;1758191;80;20829;-71
2022/02/05 11:28:59;;;;;;;17.57;9.58;;;;;;;6.60;37.86;100945.95;1758644;80;20932;-73
2022/02/05 11:31:32;;;;;;;11.15;8.03;;;;;;;6.16;38.79;100942.41;1758319;80;21421;-80
2022/02/05 11:34:28;;;;;;;11.60;7.22;;;;;;;5.71;39.04;100937.88;1758513;80;21764;-72
2022/02/05 11:37:07;;;;;;;9.85;6.62;;;;;;;5.29;40.11;100944.50;1758154;80;20972;-72
2022/02/05 11:39:49;;;;;;;8.70;6.40;;;;;;;4.91;40.84;100941.80;1758181;80;20967;-71
2022/02/05 11:42:37;;;;;;;11.75;6.78;;;;;;;4.51;41.39;100932.20;1758003;80;20900;-73
2022/02/05 11:45:30;;;;;;;8.63;6.60;;;;;;;4.17;42.17;100934.91;1758550;80;21394;-74
2022/02/05 11:47:58;;;;;;;11.48;7.53;;;;;;;3.94;43.02;100926.03;1758301;81;21044;-72
2022/02/05 11:50:25;;;;;;;7.62;6.05;;;;;;;3.80;43.31;100924.70;1714889;81;20924;-70
2022/02/05 11:52:55;;;;;;;8.73;5.85;;;;;;;3.69;43.57;100924.98;1758111;81;20884;-74
2022/02/05 11:55:34;;;;;;;8.20;5.25;;;;;;;3.51;44.19;100922.42;1758236;80;20884;-71
2022/02/05 11:58:05;;;;;;;14.07;6.72;;;;;;;3.32;44.14;100924.66;1758421;80;20853;-72
2022/02/05 12:00:49;;;;;;;7.72;5.87;;;;;;;3.12;45.40;100922.55;1758253;81;21070;-73
2022/02/05 12:03:29;;;;;;;9.60;6.60;;;;;;;2.98;45.91;100920.72;1757825;80;20849;-71
2022/02/05 12:06:01;;;;;;;10.25;7.12;;;;;;;2.89;46.01;100914.89;1758274;80;20928;-72
2022/02/05 12:08:26;;;;;;;9.80;5.30;;;;;;;2.83;45.93;100915.02;1757690;80;20999;-73
2022/02/05 12:10:56;;;;;;;7.17;5.83;;;;;;;2.77;45.88;100913.86;1758255;80;20948;-73
2022/02/05 12:13:35;;;;;;;10.48;6.53;;;;;;;2.67;46.46;100907.21;1757854;80;21577;-73
2022/02/05 12:16:08;;;;;;;5.92;5.05;;;;;;;2.60;46.83;100900.03;1757603;80;20955;-72
2022/02/05 12:19:19;;;;;;;11.68;6.58;;;;;;;2.59;46.62;100895.72;1757845;81;20986;-71
2022/02/05 12:22:03;;;;;;;7.33;6.15;;;;;;;2.55;47.07;100894.53;1757580;80;20952;-72
2022/02/05 12:24:40;;;;;;;8.98;6.25;;;;;;;2.46;46.71;100899.02;1757334;80;20896;-72
2022/02/05 12:27:05;;;;;;;9.68;7.50;;;;;;;2.41;46.92;100902.16;1756671;80;21157;-73
2022/02/05 12:29:33;;;;;;;9.33;6.30;;;;;;;2.43;47.41;100901.68;1754774;80;20860;-72
2022/02/05 12:32:00;;;;;;;12.88;5.90;;;;;;;2.44;47.17;100902.08;1757642;80;20943;-72
2022/02/05 12:34:32;;;;;;;8.70;5.67;;;;;;;2.40;47.11;100908.23;1757669;81;20940;-73
2022/02/05 12:37:00;;;;;;;9.60;7.08;;;;;;;2.35;47.26;100906.61;1757582;80;20932;-71
2022/02/05 12:39:33;;;;;;;9.53;6.42;;;;;;;2.26;47.53;100908.95;1757877;80;21129;-67
2022/02/05 12:42:13;;;;;;;10.68;6.08;;;;;;;2.18;47.83;100911.71;1757704;81;21386;-67
2022/02/05 12:44:39;;;;;;;11.55;7.50;;;;;;;2.08;47.86;100903.27;1757345;81;20937;-71
2022/02/05 12:47:13;;;;;;;10.95;8.83;;;;;;;2.02;48.39;100914.18;1757593;80;21454;-69
2022/02/05 12:49:52;;;;;;;16.87;11.15;;;;;;;1.96;48.46;100907.41;1756999;80;20912;-69
2022/02/05 12:52:13;;;;;;;10.18;7.45;;;;;;;1.89;48.94;100907.13;1756966;80;21134;-72
2022/02/05 12:54:49;;;;;;;11.18;8.28;;;;;;;1.86;49.05;100908.02;1757715;81;20923;-71
2022/02/05 12:57:18;;;;;;;10.45;7.25;;;;;;;1.83;49.46;100908.53;1757714;81;20897;-70
2022/02/05 12:59:45;;;;;;;13.18;6.45;;;;;;;1.86;49.62;100906.72;1757442;80;20955;-73
2022/02/05 13:02:14;;;;;;;11.68;7.72;;;;;;;1.89;49.03;100904.54;1751231;80;20884;-72
2022/02/05 13:04:48;;;;;;;10.15;7.12;;;;;;;1.93;49.45;100910.03;1744538;81;21132;-72
2022/02/05 13:07:25;;;;;;;9.30;6.72;;;;;;;1.93;49.25;100911.78;1744823;81;20971;-70
2022/02/05 13:10:01;;;;;;;13.55;8.65;;;;;;;1.88;49.28;100910.58;1744818;80;20948;-72
2022/02/05 13:12:36;;;;;;;11.22;7.50;;;;;;;1.83;49.53;100903.36;1744505;81;20944;-70
2022/02/05 13:15:25;;;;;;;11.35;7.20;;;;;;;1.80;49.50;100907.28;1744725;82;21012;-71
2022/02/05 13:34:12;;;;;;;7.42;5.75;;;;;;;1.13;50.24;100897.27;1744729;81;21388;-66
2022/02/05 13:37:03;;;;;;;15.00;8.55;;;;;;;1.00;50.45;100891.88;1744787;81;20932;-68
2022/02/05 13:42:14;;;;;;;18.37;11.12;;;;;;;0.78;51.72;100892.24;1744571;81;20917;-66
2022/02/05 13:45:02;;;;;;;19.57;11.28;;;;;;;0.75;52.16;100890.98;1744571;81;21208;-69
2022/02/05 13:47:35;;;;;;;17.25;10.58;;;;;;;0.74;52.49;100888.45;1744528;80;20908;-67
2022/02/05 13:50:14;;;;;;;15.88;9.48;;;;;;;0.73;52.84;100889.30;1744626;81;20940;-67
2022/02/05 13:52:44;;;;;;;12.70;8.63;;;;;;;0.72;52.87;100898.78;1744847;81;20932;-67
2022/02/05 13:55:29;;;;;;;10.32;7.10;;;;;;;0.70;52.95;100889.36;1744850;81;20853;-67
2022/02/05 13:58:08;;;;;;;12.35;7.90;;;;;;;0.64;53.42;100887.70;1744717;81;21889;-68